Time;durP1;ratioP1;P1;durP2;ratioP2;P2;SDS_P1;SDS_P2;PMS_P1;PMS_P2;Temp;Humidity;BMP_temperature;BMP_pressure;BME280_temperature;BME280_humidity;BME280_pressure;Samples;Min_cycle;Max_cycle;Signal;HPM_P1;HPM_P2
2022/01/04 00:01:02;;;;;;;6.00;2.83;;;;;;;5.32;93.72;98044.86;1712454;82;21072;-71
2022/01/04 00:03:29;;;;;;;6.80;3.22;;;;;;;5.32;93.75;98048.38;1714036;82;21620;-68
2022/01/04 00:05:56;;;;;;;6.85;2.95;;;;;;;5.32;93.82;98049.74;1715885;83;21525;-70
2022/01/04 00:08:26;;;;;;;7.33;3.67;;;;;;;5.32;93.79;98049.74;1713261;82;21500;-69
2022/01/04 00:11:05;;;;;;;6.15;3.08;;;;;;;5.31;93.81;98052.23;1710000;83;20989;-66
2022/01/04 00:13:23;;;;;;;5.50;3.02;;;;;;;5.29;93.83;98051.75;1712358;83;20968;-70
2022/01/04 00:15:55;;;;;;;6.05;3.12;;;;;;;5.29;93.86;98050.97;1706952;83;21096;-71
2022/01/04 00:18:24;;;;;;;5.55;2.92;;;;;;;5.28;93.85;98050.70;1713879;83;21052;-68
2022/01/04 00:20:52;;;;;;;5.10;3.47;;;;;;;5.26;93.87;98056.49;1713026;83;21083;-66
2022/01/04 00:23:20;;;;;;;8.08;3.50;;;;;;;5.27;93.89;98063.55;1713743;83;21449;-66
2022/01/04 00:25:46;;;;;;;7.22;3.12;;;;;;;5.26;93.88;98059.78;1714777;82;21051;-67
2022/01/04 00:28:18;;;;;;;5.58;2.72;;;;;;;5.27;93.99;98066.87;1689187;83;21032;-71
2022/01/04 00:30:46;;;;;;;3.60;2.55;;;;;;;5.27;94.10;98069.02;1716434;82;21103;-69
2022/01/04 00:33:17;;;;;;;5.37;4.15;;;;;;;5.30;94.06;98069.77;1718450;82;21004;-69
2022/01/04 00:35:43;;;;;;;7.55;3.52;;;;;;;5.32;94.02;98071.59;1718309;83;20996;-69
2022/01/04 00:38:11;;;;;;;6.90;3.30;;;;;;;5.32;93.95;98077.05;1714930;82;21473;-70
2022/01/04 00:40:38;;;;;;;9.43;3.85;;;;;;;5.32;93.88;98081.73;1715675;83;20964;-70
2022/01/04 00:43:08;;;;;;;6.80;3.25;;;;;;;5.29;93.80;98084.53;1716027;83;21455;-69
2022/01/04 00:45:37;;;;;;;4.35;2.85;;;;;;;5.28;93.86;98080.75;1712915;82;20960;-70
2022/01/04 00:50:36;;;;;;;8.98;3.47;;;;;;;5.25;93.80;98089.03;1713631;82;21067;-68
2022/01/04 00:53:04;;;;;;;9.15;4.08;;;;;;;5.26;93.85;98087.91;1711801;83;21572;-70
2022/01/04 00:55:31;;;;;;;9.50;4.00;;;;;;;5.26;93.88;98089.27;1711737;82;21771;-70
2022/01/04 00:58:01;;;;;;;8.60;4.60;;;;;;;5.29;93.97;98087.84;1714556;83;20994;-69
2022/01/04 01:00:32;;;;;;;9.55;4.03;;;;;;;5.30;93.88;98090.80;1709888;82;21426;-68
2022/01/04 01:02:59;;;;;;;9.45;4.45;;;;;;;5.29;93.92;98092.72;1712947;82;21055;-69
2022/01/04 01:05:28;;;;;;;8.95;3.75;;;;;;;5.29;93.90;98092.72;1714217;82;21618;-69
2022/01/04 01:07:55;;;;;;;7.42;3.98;;;;;;;5.29;93.92;98092.72;1713023;82;21157;-68
2022/01/04 01:10:41;;;;;;;5.58;3.37;;;;;;;5.24;93.74;98092.33;1715509;82;21016;-70
2022/01/04 01:12:57;;;;;;;8.78;4.30;;;;;;;5.22;93.81;98091.83;1713655;83;20980;-69
2022/01/04 01:15:26;;;;;;;6.22;3.65;;;;;;;5.21;93.86;98089.42;1715836;83;21028;-69
2022/01/04 01:17:52;;;;;;;8.00;4.00;;;;;;;5.19;93.89;98091.66;1684521;83;20908;-69
2022/01/04 01:20:20;;;;;;;8.15;3.80;;;;;;;5.17;93.96;98083.00;1713800;83;21001;-69
2022/01/04 01:22:50;;;;;;;7.65;3.67;;;;;;;5.17;94.00;98088.47;1716666;83;20992;-68
2022/01/04 01:25:17;;;;;;;5.75;3.22;;;;;;;5.16;94.07;98088.20;1715966;82;21038;-67
2022/01/04 01:27:43;;;;;;;5.72;2.87;;;;;;;5.15;94.20;98096.17;1712694;82;21529;-69
2022/01/04 01:30:14;;;;;;;7.83;3.47;;;;;;;5.15;94.23;98105.73;1686379;83;21004;-71
2022/01/04 01:32:42;;;;;;;4.55;2.67;;;;;;;5.13;94.40;98098.41;1713810;82;21091;-67
2022/01/04 01:35:08;;;;;;;6.25;2.65;;;;;;;5.13;94.47;98096.48;1714799;82;20992;-68
2022/01/04 01:37:34;;;;;;;5.08;2.67;;;;;;;5.13;94.52;98093.76;1710992;82;20964;-70
2022/01/04 01:40:04;;;;;;;7.83;3.02;;;;;;;5.13;94.52;98103.87;1712448;83;20961;-68
2022/01/04 01:42:34;;;;;;;5.53;3.08;;;;;;;5.13;94.61;98105.23;1714052;82;20944;-68
2022/01/04 01:45:02;;;;;;;5.33;2.80;;;;;;;5.10;94.59;98112.15;1710673;82;21028;-70
2022/01/04 01:47:33;;;;;;;5.75;3.00;;;;;;;5.08;94.71;98106.20;1713312;83;21044;-66
2022/01/04 01:50:01;;;;;;;5.10;2.52;;;;;;;5.07;94.78;98108.66;1707126;82;21069;-68
2022/01/04 01:52:29;;;;;;;6.17;3.30;;;;;;;5.06;94.88;98104.34;1722790;81;20989;-67
2022/01/04 01:54:57;;;;;;;6.33;3.52;;;;;;;5.03;94.91;98112.62;1745052;81;20938;-70
2022/01/04 01:57:24;;;;;;;7.08;3.17;;;;;;;5.02;95.06;98107.45;1744159;81;21538;-69
2022/01/04 01:59:51;;;;;;;4.70;2.98;;;;;;;4.99;95.19;98110.27;1744935;81;21032;-69
2022/01/04 02:02:17;;;;;;;6.33;3.27;;;;;;;4.98;95.38;98112.77;1742088;81;21530;-68
2022/01/04 02:04:45;;;;;;;4.55;2.80;;;;;;;4.97;95.53;98113.86;1743716;81;20953;-68
2022/01/04 02:07:15;;;;;;;7.28;4.03;;;;;;;4.97;95.60;98113.86;1723080;81;20977;-68
2022/01/04 02:09:53;;;;;;;7.12;3.40;;;;;;;4.95;95.69;98114.73;1743459;81;21059;-70
2022/01/04 02:12:14;;;;;;;3.67;2.90;;;;;;;4.93;95.90;98119.15;1745846;81;20973;-68
2022/01/04 02:14:51;;;;;;;4.40;2.62;;;;;;;4.93;95.98;98117.78;1743801;81;20958;-70
2022/01/04 02:17:20;;;;;;;3.92;2.47;;;;;;;4.91;96.08;98119.23;1745237;81;21054;-68
2022/01/04 02:19:46;;;;;;;6.22;2.95;;;;;;;4.89;96.24;98124.20;1744727;81;21056;-69
2022/01/04 02:22:13;;;;;;;4.47;2.83;;;;;;;4.87;96.39;98121.23;1745557;81;22283;-69
2022/01/04 02:24:40;;;;;;;3.67;2.70;;;;;;;4.86;96.49;98116.88;1744332;81;21033;-66
2022/01/04 02:27:06;;;;;;;4.40;2.42;;;;;;;4.86;96.66;98116.88;1743681;81;21449;-68
2022/01/04 02:29:33;;;;;;;3.02;2.33;;;;;;;4.86;96.74;98119.61;1727063;81;21053;-69
2022/01/04 02:32:02;;;;;;;6.83;2.35;;;;;;;4.84;96.65;98116.41;1745950;81;20949;-68
2022/01/04 02:34:29;;;;;;;6.08;2.27;;;;;;;4.80;96.66;98116.79;1745417;81;21147;-69
2022/01/04 02:36:57;;;;;;;3.50;1.87;;;;;;;4.78;96.73;98120.39;1745407;81;20974;-70
2022/01/04 02:39:30;;;;;;;5.97;2.05;;;;;;;4.77;96.71;98120.16;1745428;81;20933;-70
2022/01/04 02:41:58;;;;;;;4.12;1.37;;;;;;;4.77;96.56;98116.61;1744670;81;21041;-69
2022/01/04 02:44:26;;;;;;;4.90;2.30;;;;;;;4.74;96.43;98122.16;1745460;81;21043;-69
2022/01/04 02:46:54;;;;;;;3.33;1.70;;;;;;;4.73;96.42;98125.98;1743013;81;21132;-68
2022/01/04 02:49:23;;;;;;;2.55;1.62;;;;;;;4.71;96.33;98123.58;1744077;81;20948;-70
2022/01/04 02:51:49;;;;;;;2.50;1.40;;;;;;;4.72;96.37;98125.75;1742054;81;21049;-66
2022/01/04 02:54:16;;;;;;;3.47;1.65;;;;;;;4.71;96.39;98117.30;1744769;81;21000;-69
2022/01/04 02:56:42;;;;;;;5.35;1.55;;;;;;;4.73;96.42;98125.98;1744340;81;20894;-70
2022/01/04 02:59:08;;;;;;;4.25;1.90;;;;;;;4.75;96.50;98129.21;1744257;81;21515;-70
2022/01/04 03:01:39;;;;;;;3.00;1.77;;;;;;;4.75;96.44;98123.75;1742917;81;21142;-69
2022/01/04 03:04:07;;;;;;;6.78;1.90;;;;;;;4.74;96.52;98131.13;1745611;81;21701;-69
2022/01/04 03:06:38;;;;;;;3.42;1.67;;;;;;;4.74;96.58;98133.08;1723108;81;21514;-70
2022/01/04 03:09:08;;;;;;;2.90;1.77;;;;;;;4.74;96.57;98130.34;1746429;81;21440;-70
2022/01/04 03:11:35;;;;;;;3.25;1.75;;;;;;;4.72;96.61;98129.30;1745343;81;21960;-70
2022/01/04 03:14:03;;;;;;;4.30;1.62;;;;;;;4.72;96.70;98127.13;1744890;81;21005;-71
2022/01/04 03:16:30;;;;;;;2.67;1.70;;;;;;;4.70;96.62;98128.80;1744908;81;20969;-68
2022/01/04 03:21:26;;;;;;;5.55;1.55;;;;;;;4.66;96.51;98130.53;1744643;81;21524;-70
2022/01/04 03:23:53;;;;;;;4.80;1.82;;;;;;;4.63;96.43;98133.89;1744552;81;21108;-70
2022/01/04 03:26:19;;;;;;;3.65;1.87;;;;;;;4.58;96.45;98128.03;1744872;81;21036;-69
2022/01/04 03:28:47;;;;;;;4.47;1.65;;;;;;;4.58;96.57;98138.94;1744513;81;21383;-69
2022/01/04 03:31:15;;;;;;;3.33;1.80;;;;;;;4.56;96.66;98149.36;1743561;81;21119;-69
2022/01/04 03:33:42;;;;;;;3.55;1.75;;;;;;;4.56;96.69;98149.36;1743817;81;21056;-70
2022/01/04 03:36:11;;;;;;;5.37;1.72;;;;;;;4.56;96.81;98151.27;1747320;81;22002;-70
2022/01/04 03:38:38;;;;;;;4.83;2.17;;;;;;;4.58;96.78;98154.50;1744641;81;20974;-69
2022/01/04 03:41:07;;;;;;;3.62;1.80;;;;;;;4.60;96.86;98154.99;1746052;81;21019;-69
2022/01/04 03:43:34;;;;;;;5.25;2.60;;;;;;;4.62;96.87;98150.82;1743448;81;21474;-67
2022/01/04 03:46:02;;;;;;;3.75;2.30;;;;;;;4.65;96.87;98154.86;1745818;81;21438;-68
2022/01/04 03:48:29;;;;;;;4.85;1.92;;;;;;;4.67;96.83;98158.64;1747026;81;21139;-68
2022/01/04 03:50:55;;;;;;;4.40;1.75;;;;;;;4.70;96.85;98170.28;1743057;81;20917;-70
2022/01/04 03:53:23;;;;;;;4.80;2.05;;;;;;;4.70;96.69;98174.38;1744130;81;20972;-67
2022/01/04 03:55:51;;;;;;;4.40;2.40;;;;;;;4.67;96.76;98179.10;1745096;81;21015;-69
2022/01/04 03:58:18;;;;;;;5.12;2.35;;;;;;;4.67;96.88;98181.28;1744357;81;20984;-68
2022/01/04 04:00:45;;;;;;;3.37;2.15;;;;;;;4.64;97.18;98176.42;1742853;81;21455;-68
2022/01/04 04:03:12;;;;;;;4.58;1.90;;;;;;;4.61;97.19;98179.23;1744385;81;20971;-69
2022/01/04 04:05:40;;;;;;;4.40;1.98;;;;;;;4.62;97.42;98170.50;1744479;81;20944;-70
2022/01/04 04:08:08;;;;;;;6.67;1.98;;;;;;;4.63;97.70;98170.73;1744606;81;20981;-71
2022/01/04 04:10:34;;;;;;;5.00;2.12;;;;;;;4.67;97.86;98177.19;1745484;81;21410;-69
2022/01/04 04:13:03;;;;;;;3.35;1.90;;;;;;;4.70;97.96;98185.30;1743586;81;21563;-70
2022/01/04 04:15:31;;;;;;;6.42;2.20;;;;;;;4.68;97.96;98182.06;1744761;81;20925;-69
2022/01/04 04:17:59;;;;;;;3.60;2.08;;;;;;;4.70;98.18;98192.11;1746476;81;20993;-68
2022/01/04 04:20:28;;;;;;;5.85;2.50;;;;;;;4.73;98.24;98188.75;1745706;81;21133;-70
2022/01/04 04:22:55;;;;;;;4.58;2.12;;;;;;;4.74;98.24;98197.20;1742549;81;21035;-68
2022/01/04 04:25:25;;;;;;;4.53;2.10;;;;;;;4.74;98.33;98197.20;1744051;81;21127;-68
2022/01/04 04:27:51;;;;;;;3.87;2.35;;;;;;;4.75;98.34;98200.17;1745888;81;20978;-68
2022/01/04 04:30:19;;;;;;;3.92;2.52;;;;;;;4.74;98.33;98200.72;1746514;81;20994;-68
2022/01/04 04:32:47;;;;;;;6.08;2.45;;;;;;;4.73;98.34;98204.58;1746601;81;21017;-69
2022/01/04 04:35:14;;;;;;;10.43;2.70;;;;;;;4.72;98.44;98200.25;1744110;81;20994;-68
2022/01/04 04:37:43;;;;;;;7.15;3.12;;;;;;;4.72;98.47;98199.44;1744814;81;21080;-69
2022/01/04 04:40:10;;;;;;;7.10;3.45;;;;;;;4.71;98.49;98202.72;1742322;81;21534;-69
2022/01/04 04:42:40;;;;;;;7.92;4.03;;;;;;;4.72;98.57;98200.80;1743878;81;21520;-69
2022/01/04 04:45:08;;;;;;;5.75;3.92;;;;;;;4.73;98.72;98201.84;1744608;81;21057;-68
2022/01/04 04:47:36;;;;;;;9.03;5.12;;;;;;;4.75;98.73;98209.72;1744860;81;20966;-69
2022/01/04 04:50:03;;;;;;;6.15;4.45;;;;;;;4.74;98.78;98206.17;1743932;81;21470;-69
2022/01/04 04:52:30;;;;;;;8.58;4.75;;;;;;;4.75;98.81;98209.17;1745228;81;20917;-68
2022/01/04 04:54:56;;;;;;;7.87;4.62;;;;;;;4.75;98.85;98206.99;1743677;81;21521;-69
2022/01/04 04:57:24;;;;;;;8.15;4.97;;;;;;;4.74;98.83;98211.63;1744213;81;21001;-67
2022/01/04 04:59:51;;;;;;;7.00;4.90;;;;;;;4.73;98.96;98210.04;1744523;81;20908;-68
2022/01/04 05:02:17;;;;;;;10.82;5.10;;;;;;;4.73;98.92;98216.05;1742556;81;21029;-70
2022/01/04 05:04:43;;;;;;;10.55;6.40;;;;;;;4.71;98.91;98221.00;1745490;81;21398;-68
2022/01/04 05:07:12;;;;;;;8.18;4.90;;;;;;;4.67;98.85;98225.49;1744217;81;20922;-70
2022/01/04 05:09:38;;;;;;;6.08;4.17;;;;;;;4.59;99.02;98223.76;1744811;81;21001;-70
2022/01/04 05:12:09;;;;;;;6.25;4.85;;;;;;;4.56;99.16;98232.57;1743247;81;21558;-68
2022/01/04 05:14:37;;;;;;;7.33;4.83;;;;;;;4.52;99.22;98233.51;1744050;81;21123;-68
2022/01/04 05:17:06;;;;;;;7.17;4.67;;;;;;;4.52;99.55;98238.39;1743965;81;21020;-67
2022/01/04 05:19:35;;;;;;;6.20;4.72;;;;;;;4.54;99.62;98237.52;1744795;81;20950;-70
2022/01/04 05:22:04;;;;;;;6.67;4.92;;;;;;;4.53;99.62;98241.37;1745338;81;20945;-68
2022/01/04 05:24:34;;;;;;;9.90;6.03;;;;;;;4.53;99.74;98240.56;1744244;81;20908;-69
2022/01/04 05:27:02;;;;;;;7.87;5.28;;;;;;;4.52;99.82;98247.15;1743058;81;22014;-69
2022/01/04 05:29:30;;;;;;;8.40;6.08;;;;;;;4.53;99.98;98246.02;1745184;81;21017;-65
2022/01/04 05:31:58;;;;;;;14.78;8.00;;;;;;;4.52;100.00;98251.24;1737034;81;21022;-69
2022/01/04 05:34:25;;;;;;;10.40;6.47;;;;;;;4.49;100.00;98252.66;1745949;81;20995;-67
2022/01/04 05:36:53;;;;;;;13.65;7.20;;;;;;;4.50;100.00;98263.83;1738711;81;20973;-70
2022/01/04 05:39:20;;;;;;;10.28;6.72;;;;;;;4.52;100.00;98267.03;1744408;81;21513;-69
2022/01/04 05:41:46;;;;;;;10.38;6.30;;;;;;;4.54;100.00;98258.56;1744015;81;21545;-68
2022/01/04 05:44:13;;;;;;;8.63;6.40;;;;;;;4.56;100.00;98267.22;1741593;81;21039;-70
2022/01/04 05:46:42;;;;;;;14.90;6.45;;;;;;;4.55;100.00;98271.89;1738443;81;20957;-70
2022/01/04 05:49:08;;;;;;;11.83;6.80;;;;;;;4.54;100.00;98276.30;1744690;81;21590;-68
2022/01/04 05:51:35;;;;;;;13.35;6.83;;;;;;;4.51;100.00;98273.62;1744371;81;21136;-70
2022/01/04 05:54:02;;;;;;;10.10;6.90;;;;;;;4.52;100.00;98276.58;1744625;81;21045;-68
2022/01/04 05:56:32;;;;;;;9.60;6.25;;;;;;;4.54;100.00;98279.81;1743374;81;20969;-69
2022/01/04 05:58:59;;;;;;;10.38;6.20;;;;;;;4.55;100.00;98281.44;1743944;81;20993;-69
2022/01/04 06:01:25;;;;;;;8.35;5.65;;;;;;;4.55;100.00;98281.99;1746210;81;20980;-68
2022/01/04 06:03:52;;;;;;;10.88;6.33;;;;;;;4.55;100.00;98284.17;1744904;81;22203;-68
2022/01/04 06:06:20;;;;;;;7.70;5.40;;;;;;;4.54;100.00;98285.84;1746241;81;21011;-70
2022/01/04 06:08:48;;;;;;;8.25;5.15;;;;;;;4.55;100.00;98288.27;1743685;81;21028;-69
2022/01/04 06:16:45;;;;;;;9.35;6.37;;;;;;;4.52;100.00;98301.14;1743773;81;21449;-70
2022/01/04 06:19:14;;;;;;;8.95;5.85;;;;;;;4.51;100.00;98306.35;1747049;81;21117;-68
2022/01/04 06:21:44;;;;;;;11.78;5.58;;;;;;;4.52;100.00;98301.14;1745223;81;20930;-69
2022/01/04 06:24:10;;;;;;;10.40;6.00;;;;;;;4.52;100.00;98307.95;1746682;81;21490;-70
2022/01/04 06:26:39;;;;;;;10.60;5.87;;;;;;;4.48;100.00;98303.70;1721526;81;21032;-70
2022/01/04 06:29:11;;;;;;;10.70;6.40;;;;;;;4.50;100.00;98309.63;1742895;81;20964;-69
2022/01/04 06:31:40;;;;;;;12.98;7.03;;;;;;;4.52;100.00;98312.62;1740086;81;20949;-68
2022/01/04 06:34:13;;;;;;;14.28;6.85;;;;;;;4.50;100.00;98315.09;1744043;81;21009;-69
2022/01/04 06:36:43;;;;;;;11.35;6.55;;;;;;;4.52;100.00;98312.62;1744725;81;20942;-68
2022/01/04 06:39:12;;;;;;;11.65;6.78;;;;;;;4.53;100.00;98321.05;1747103;81;20861;-68
2022/01/04 06:41:38;;;;;;;9.05;5.72;;;;;;;4.52;100.00;98320.23;1743973;81;21111;-71
2022/01/04 06:44:06;;;;;;;12.50;6.45;;;;;;;4.52;100.00;98320.23;1743520;81;20952;-70
2022/01/04 06:46:36;;;;;;;8.85;5.62;;;;;;;4.51;100.00;98324.09;1744957;81;20961;-69
2022/01/04 06:49:02;;;;;;;5.67;5.00;;;;;;;4.51;100.00;98332.27;1746503;81;21040;-68
2022/01/04 06:51:32;;;;;;;7.33;5.05;;;;;;;4.52;100.00;98328.99;1740007;81;20950;-71
2022/01/04 06:54:00;;;;;;;8.60;5.80;;;;;;;4.51;100.00;98332.27;1744938;81;21102;-68
2022/01/04 06:56:28;;;;;;;12.15;6.15;;;;;;;4.45;99.98;98335.67;1746147;81;20978;-69
2022/01/04 06:58:55;;;;;;;9.35;5.10;;;;;;;4.44;100.00;98341.43;1745478;81;20926;-69
2022/01/04 07:01:22;;;;;;;8.83;5.22;;;;;;;4.46;100.00;98337.84;1745939;81;20917;-68
2022/01/04 07:03:49;;;;;;;11.63;6.08;;;;;;;4.43;100.00;98337.91;1745376;81;20994;-70
2022/01/04 07:06:15;;;;;;;8.75;5.45;;;;;;;4.37;100.00;98331.76;1744788;81;21149;-68
2022/01/04 07:08:45;;;;;;;11.65;6.03;;;;;;;4.39;100.00;98332.81;1742788;81;20950;-70
2022/01/04 07:11:12;;;;;;;8.98;5.22;;;;;;;4.41;100.00;98335.23;1743159;81;20968;-67
2022/01/04 07:13:38;;;;;;;9.13;4.50;;;;;;;4.44;100.00;98332.70;1744234;81;21052;-69
2022/01/04 07:16:05;;;;;;;10.32;5.33;;;;;;;4.47;100.00;98338.11;1740959;81;21151;-70
2022/01/04 07:18:31;;;;;;;7.72;5.12;;;;;;;4.48;100.00;98340.53;1744146;81;21171;-67
2022/01/04 07:20:59;;;;;;;9.03;5.53;;;;;;;4.49;100.00;98340.77;1742342;81;20941;-69
2022/01/04 07:23:28;;;;;;;9.63;5.55;;;;;;;4.51;100.00;98341.82;1743701;81;20923;-69
2022/01/04 07:26:00;;;;;;;17.77;5.55;;;;;;;4.54;100.00;98337.69;1746915;81;20913;-70
2022/01/04 07:28:31;;;;;;;8.03;5.50;;;;;;;4.54;100.00;98337.11;1744864;81;21044;-68
2022/01/04 07:31:00;;;;;;;12.98;5.87;;;;;;;4.55;99.93;98345.56;1744317;81;21011;-71
2022/01/04 07:33:29;;;;;;;11.30;5.53;;;;;;;4.57;99.91;98341.94;1744579;81;21203;-68
2022/01/04 07:35:59;;;;;;;13.10;6.30;;;;;;;4.57;99.87;98343.30;1724617;81;21507;-68
2022/01/04 07:38:28;;;;;;;13.25;6.58;;;;;;;4.59;99.98;98346.54;1743149;81;21103;-67
2022/01/04 07:40:57;;;;;;;13.38;5.80;;;;;;;4.65;99.90;98352.69;1743218;81;20920;-70
2022/01/04 07:43:29;;;;;;;14.58;6.20;;;;;;;4.70;99.83;98350.39;1743688;81;21387;-69
2022/01/04 07:45:57;;;;;;;13.03;6.62;;;;;;;4.71;99.71;98352.81;1745150;81;21454;-67
2022/01/04 07:48:24;;;;;;;11.28;6.30;;;;;;;4.75;99.61;98354.37;1743755;81;21433;-69
2022/01/04 07:50:58;;;;;;;16.57;7.33;;;;;;;4.76;99.40;98355.97;1727110;82;21065;-68
2022/01/04 07:53:25;;;;;;;13.90;6.58;;;;;;;4.76;99.19;98361.43;1743145;81;21045;-71
2022/01/04 07:55:52;;;;;;;11.22;5.87;;;;;;;4.76;98.97;98360.06;1745786;81;21597;-68
2022/01/04 07:58:22;;;;;;;13.18;6.10;;;;;;;4.75;98.59;98354.37;1742085;81;21526;-69
2022/01/04 08:00:50;;;;;;;16.30;5.90;;;;;;;4.75;98.48;98355.73;1744309;81;21446;-70
2022/01/04 08:03:19;;;;;;;12.63;6.40;;;;;;;4.77;98.55;98358.97;1744129;81;21016;-69
2022/01/04 08:05:45;;;;;;;10.98;5.33;;;;;;;4.78;98.37;98360.56;1743876;81;21170;-68
2022/01/04 08:08:13;;;;;;;10.72;5.05;;;;;;;4.78;98.13;98357.05;1745938;81;21531;-68
2022/01/04 08:10:39;;;;;;;11.25;5.75;;;;;;;4.79;98.14;98354.56;1742810;81;21012;-70
2022/01/04 08:13:07;;;;;;;9.55;5.95;;;;;;;4.82;98.11;98368.40;1743268;81;20985;-69
2022/01/04 08:15:33;;;;;;;11.30;6.50;;;;;;;4.84;97.77;98370.27;1745284;81;21480;-71
2022/01/04 08:18:00;;;;;;;14.43;7.12;;;;;;;4.83;97.52;98371.36;1743699;81;21035;-68
2022/01/04 08:20:29;;;;;;;13.32;6.42;;;;;;;4.83;97.38;98366.45;1744252;81;21183;-69
2022/01/04 08:22:57;;;;;;;8.68;5.28;;;;;;;4.82;97.37;98360.76;1744203;81;21072;-70
2022/01/04 08:25:30;;;;;;;14.68;6.75;;;;;;;4.81;97.33;98364.03;1744491;81;20950;-69
2022/01/04 08:27:58;;;;;;;12.90;6.40;;;;;;;4.83;97.37;98358.27;1741824;81;21095;-70
2022/01/04 08:30:28;;;;;;;11.30;6.78;;;;;;;4.86;97.39;98351.63;1742826;81;21402;-68
2022/01/04 08:32:55;;;;;;;8.78;5.85;;;;;;;4.90;97.19;98360.56;1727080;81;21130;-70
2022/01/04 08:35:27;;;;;;;12.30;6.12;;;;;;;4.91;96.96;98355.36;1725005;81;20979;-69
2022/01/04 08:37:59;;;;;;;10.23;6.67;;;;;;;4.92;96.84;98356.97;1745745;81;20976;-72
2022/01/04 08:40:31;;;;;;;13.53;7.37;;;;;;;4.93;96.85;98364.84;1744520;81;21151;-66
2022/01/04 08:42:57;;;;;;;14.15;7.62;;;;;;;4.95;96.71;98370.80;1744411;81;21041;-70
2022/01/04 08:45:24;;;;;;;14.45;6.95;;;;;;;4.93;96.49;98366.21;1745390;81;21434;-71
2022/01/04 08:47:55;;;;;;;11.65;6.37;;;;;;;4.93;96.37;98366.21;1727118;81;21064;-68
2022/01/04 08:50:22;;;;;;;14.05;6.85;;;;;;;4.94;96.26;98367.02;1744514;81;20953;-71
2022/01/04 08:52:54;;;;;;;16.45;7.12;;;;;;;4.97;96.33;98365.03;1744384;81;21425;-71
2022/01/04 08:55:23;;;;;;;18.30;6.70;;;;;;;4.98;96.09;98369.39;1744056;81;21010;-72
2022/01/04 08:57:51;;;;;;;15.32;7.85;;;;;;;5.02;96.07;98373.10;1743857;81;21167;-69
2022/01/04 09:00:19;;;;;;;12.70;7.70;;;;;;;5.05;95.93;98372.47;1744402;81;21547;-68
2022/01/04 09:02:46;;;;;;;23.70;7.97;;;;;;;5.11;96.02;98367.70;1744875;81;21048;-67
2022/01/04 09:05:13;;;;;;;14.50;7.62;;;;;;;5.24;95.95;98365.45;1744252;81;21525;-70
2022/01/04 09:07:42;;;;;;;19.32;8.13;;;;;;;5.36;95.83;98363.50;1745535;81;20938;-70
2022/01/04 09:10:12;;;;;;;14.00;8.50;;;;;;;5.49;95.73;98362.37;1742339;81;21418;-69
2022/01/04 09:12:53;;;;;;;15.10;7.97;;;;;;;5.60;95.39;98369.16;1745286;81;21095;-69
2022/01/04 09:15:30;;;;;;;12.70;6.85;;;;;;;5.70;95.00;98372.17;1744424;81;20980;-71
2022/01/04 09:20:32;;;;;;;25.72;8.60;;;;;;;5.76;93.80;98372.85;1744843;81;20981;-68
2022/01/04 09:23:02;;;;;;;15.28;8.28;;;;;;;5.78;93.42;98380.73;1745510;81;21129;-68
2022/01/04 09:25:28;;;;;;;15.05;8.93;;;;;;;5.81;93.38;98377.36;1745834;81;20941;-68
2022/01/04 09:27:57;;;;;;;14.63;7.33;;;;;;;5.82;92.86;98378.41;1745166;81;21431;-71
2022/01/04 09:30:24;;;;;;;16.95;8.33;;;;;;;5.81;92.44;98381.46;1745069;81;20927;-72
2022/01/04 09:32:53;;;;;;;17.02;9.15;;;;;;;5.81;91.78;98382.28;1746218;81;21458;-72
2022/01/04 09:35:21;;;;;;;24.65;10.35;;;;;;;5.80;91.64;98374.39;1746501;81;21596;-71
2022/01/04 09:37:52;;;;;;;21.45;9.65;;;;;;;5.76;91.40;98372.03;1745112;81;21106;-68
2022/01/04 09:40:20;;;;;;;15.72;8.63;;;;;;;5.70;91.30;98376.27;1740198;80;21000;-70
2022/01/04 09:42:50;;;;;;;15.48;8.55;;;;;;;5.65;91.22;98375.05;1744576;81;20969;-68
2022/01/04 09:45:18;;;;;;;19.55;9.00;;;;;;;5.58;90.96;98380.97;1728657;81;21081;-70
2022/01/04 09:47:46;;;;;;;17.30;8.85;;;;;;;5.53;91.13;98372.09;1743126;81;21494;-70
2022/01/04 09:50:14;;;;;;;18.50;9.28;;;;;;;5.51;91.25;98375.14;1743102;81;21577;-71
2022/01/04 09:52:49;;;;;;;18.30;9.03;;;;;;;5.48;91.06;98379.31;1744357;81;21167;-71
2022/01/04 09:55:16;;;;;;;17.12;8.25;;;;;;;5.45;91.04;98379.13;1739918;81;21489;-71
2022/01/04 09:57:47;;;;;;;17.77;8.90;;;;;;;5.42;91.08;98383.86;1727387;81;20952;-70
2022/01/04 10:00:17;;;;;;;18.05;8.20;;;;;;;5.40;90.92;98386.09;1744047;81;21103;-71
2022/01/04 10:02:50;;;;;;;18.50;8.90;;;;;;;5.40;90.75;98386.91;1746945;81;21029;-69
2022/01/04 10:05:23;;;;;;;17.57;9.33;;;;;;;5.42;90.75;98393.42;1745626;81;21099;-71
2022/01/04 10:08:03;;;;;;;24.55;10.25;;;;;;;5.41;90.40;98389.09;1743877;81;21028;-71
2022/01/04 10:10:35;;;;;;;15.53;7.97;;;;;;;5.40;90.56;98386.91;1742720;81;21725;-69
2022/01/04 10:13:11;;;;;;;21.35;9.78;;;;;;;5.42;90.37;98387.41;1747464;81;21582;-71
2022/01/04 10:15:50;;;;;;;16.48;8.25;;;;;;;5.39;90.24;98383.91;1744706;81;20926;-69
2022/01/04 10:18:25;;;;;;;16.42;8.05;;;;;;;5.38;90.15;98383.68;1741885;81;21577;-70
2022/01/04 10:21:12;;;;;;;17.67;8.15;;;;;;;5.33;90.10;98394.19;1741825;81;21033;-69
2022/01/04 10:23:53;;;;;;;19.27;8.33;;;;;;;5.33;90.19;98387.91;1744425;81;21000;-71
2022/01/04 10:26:39;;;;;;;;;;;;;;;5.35;90.26;98391.95;1747879;81;21601;-71
2022/01/04 10:29:19;;;;;;;14.55;7.97;;;;;;;5.36;90.04;98390.01;1744158;81;20092;-71
2022/01/04 10:31:51;;;;;;;15.40;7.75;;;;;;;5.35;89.86;98391.95;1742407;81;21033;-69
2022/01/04 10:34:18;;;;;;;16.48;7.42;;;;;;;5.36;89.58;98398.20;1744447;81;21488;-69
2022/01/04 10:36:46;;;;;;;16.95;8.70;;;;;;;5.37;89.24;98402.56;1743916;81;20917;-70
2022/01/04 10:39:12;;;;;;;17.70;7.08;;;;;;;5.39;88.87;98399.52;1745303;81;21091;-69
2022/01/04 10:41:41;;;;;;;17.48;7.83;;;;;;;5.38;88.16;98404.72;1744970;81;21060;-72
2022/01/04 10:44:10;;;;;;;16.15;7.50;;;;;;;5.35;87.60;98402.88;1744876;81;21056;-69
2022/01/04 10:46:45;;;;;;;15.68;7.45;;;;;;;5.34;87.54;98403.98;1745559;81;20967;-71
2022/01/04 10:49:21;;;;;;;16.82;7.00;;;;;;;5.36;87.64;98401.75;1743441;81;21043;-74
2022/01/04 10:52:09;;;;;;;14.20;7.67;;;;;;;5.39;87.44;98400.30;1741796;81;21509;-69
2022/01/04 10:54:35;;;;;;;17.50;7.55;;;;;;;5.40;87.11;98395.66;1746588;81;21175;-71
2022/01/04 10:57:09;;;;;;;15.25;7.03;;;;;;;5.38;87.04;98392.42;1746210;81;21541;-70
2022/01/04 10:59:40;;;;;;;15.63;7.42;;;;;;;5.38;86.93;98387.78;1738689;81;21055;-67
2022/01/04 11:02:08;;;;;;;18.75;8.55;;;;;;;5.40;86.91;98382.00;1715356;83;21130;-68
2022/01/04 11:04:37;;;;;;;14.63;7.28;;;;;;;5.40;86.87;98391.56;1716039;82;21397;-69
2022/01/04 11:07:05;;;;;;;17.60;8.58;;;;;;;5.43;86.97;98386.28;1703298;83;20996;-69
2022/01/04 11:09:32;;;;;;;12.35;7.25;;;;;;;5.44;86.91;98388.46;1700631;82;21037;-68
2022/01/04 11:12:00;;;;;;;20.12;9.35;;;;;;;5.44;86.86;98385.73;1702195;83;21056;-67
2022/01/04 11:14:30;;;;;;;21.42;9.53;;;;;;;5.46;86.96;98383.47;1701934;82;21101;-68
2022/01/04 11:17:00;;;;;;;23.77;13.05;;;;;;;5.47;87.03;98381.81;1695403;82;21049;-68
2022/01/04 11:19:27;;;;;;;30.12;12.37;;;;;;;5.52;87.18;98384.15;1700201;83;21638;-68
2022/01/04 11:21:56;;;;;;;21.95;10.45;;;;;;;5.55;87.33;98392.53;1704191;82;20985;-70
2022/01/04 11:24:25;;;;;;;31.45;12.75;;;;;;;5.59;87.42;98394.89;1700737;83;21549;-71
2022/01/04 11:26:53;;;;;;;21.27;9.70;;;;;;;5.59;87.50;98385.87;1677747;83;21072;-69
2022/01/04 11:29:21;;;;;;;19.60;9.40;;;;;;;5.63;87.50;98388.80;1699945;82;21159;-69
2022/01/04 11:32:02;;;;;;;22.07;9.23;;;;;;;5.60;87.67;98388.30;1703784;83;21653;-70
2022/01/04 11:34:59;;;;;;;19.27;9.70;;;;;;;5.64;87.77;98383.01;1668325;85;21056;-67
2022/01/04 11:37:30;;;;;;;26.02;11.30;;;;;;;5.66;87.64;98375.31;1708186;83;21060;-67
2022/01/04 11:40:00;;;;;;;26.27;11.57;;;;;;;5.66;87.57;98378.05;1688066;83;20965;-71
2022/01/04 11:42:41;;;;;;;29.00;10.80;;;;;;;5.67;87.57;98385.66;1701576;83;21205;-69
2022/01/04 11:45:10;;;;;;;26.82;10.80;;;;;;;5.67;87.59;98385.11;1704499;83;21067;-69
2022/01/04 11:47:46;;;;;;;21.93;9.68;;;;;;;5.69;87.57;98386.16;1700180;82;21020;-69
2022/01/04 11:50:24;;;;;;;24.67;9.70;;;;;;;5.70;87.57;98394.59;1630830;86;21278;-67
2022/01/04 11:53:09;;;;;;;29.10;8.88;;;;;;;5.69;87.40;98396.54;1654677;85;21027;-69
2022/01/04 11:55:35;;;;;;;17.62;6.83;;;;;;;5.71;87.19;98396.22;1650169;85;21150;-66
2022/01/04 11:58:14;;;;;;;13.08;7.12;;;;;;;5.69;86.41;98403.92;1698116;82;21540;-67